Gaziantep International Airport
LTAJ : now visible

Airfield :











YOU CAN JOIN US ON...

 
LOGIN :

Register | Disclaimer

   EN    FR    IT 

 









Legend :    VFR   Marginal VFR   IFR   Intensive IFR   Very Intensive IFR
Visi :
Ceiling :
>= 8 km
>= 3000ft
5 to 8 km
1000 to 3000 ft
1500m to 5 km
500 to 1000 ft
800 to 1500m
200 to 500 ft
< 800m
< 200 ft
Symbols :   Thunderstorms  Fog  Heavy snow  Heavy precipitations  Wind > 20 kt







- Airport Elevation : 2315 ft
- IATA code : GZT


LTAJ - Gaziantep International

CURRENT METAR :
  • 200920Z 25012KT 220V290 9999 SCT040 28/16 Q1007 NOSIG RMK RWY10 27011KT 220V290

EXPIRED METARs :
  • 200850Z 25011KT 220V280 9999 SCT040 28/16 Q1008 NOSIG RMK RWY10 26010KT 220V300
  • 200820Z 25012KT 210V280 9999 FEW040 28/15 Q1008 NOSIG RMK RWY10 26010KT 180V290
  • 200750Z 25010KT 200V290 CAVOK 27/15 Q1008 NOSIG RMK RWY10 25010KT 200V290
  • 200720Z 25012KT 220V280 CAVOK 26/14 Q1008 NOSIG RMK RWY10 25010KT 200V300
  • 200650Z 27012KT 240V300 CAVOK 26/14 Q1008 NOSIG RMK RWY10 27011KT 240V300

TAF TAF LTAJ
Valid from the 20 at 06:00 until the 21 at 06:00 UTC


200440Z 2006/2106 25012KT CAVOK
BECMG 2007/2009 SCT040
BECMG 2016/2018 CAVOK
BECMG 2021/2023 VRB02KT
No reported NOTAMs for that airfield.



MET'MAP, your aeronautical weather chart ! - Copyright ORBIFLY December 2007 - Disclaimer

ORBIFLY MET'MAP TEAM :

Programming & Development : Alexandra Zaïnal
Concept & Development : Baudouin d'Aumeries
Co-Development & Prog : Marc-Olivier Méhu
Technical & hardware support : Manuel Goepfert

Contact : metmap@orbifly.com




SOURCES & CREDITS :

   NOAA       Earth
Advisory